createdAt,value
2023-01-22T00:00:06.036Z,13.83
2023-01-22T00:02:36.229Z,14.73
2023-01-22T00:05:04.060Z,13.67
2023-01-22T00:07:30.907Z,13.47
2023-01-22T00:09:57.628Z,13.67
2023-01-22T00:12:24.366Z,13.57
2023-01-22T00:14:51.228Z,12.93
2023-01-22T00:17:18.112Z,12.87
2023-01-22T00:19:45.135Z,12.83
2023-01-22T00:22:13.771Z,12.30
2023-01-22T00:24:40.547Z,12.50
2023-01-22T00:27:07.283Z,14.43
2023-01-22T00:29:34.812Z,13.80
2023-01-22T00:32:02.118Z,13.27
2023-01-22T00:34:29.292Z,14.00
2023-01-22T00:36:56.299Z,14.27
2023-01-22T00:39:23.047Z,13.93
2023-01-22T00:41:49.881Z,13.47
2023-01-22T00:44:16.861Z,13.83
2023-01-22T00:46:43.726Z,12.50
2023-01-22T00:49:13.688Z,12.40
2023-01-22T00:51:40.529Z,13.57
2023-01-22T00:54:08.664Z,13.77
2023-01-22T00:56:35.375Z,13.03
2023-01-22T00:59:02.185Z,13.60
2023-01-22T01:01:28.941Z,13.73
2023-01-22T01:03:55.645Z,13.93
2023-01-22T01:06:22.610Z,13.77
2023-01-22T01:08:50.099Z,15.00
2023-01-22T01:11:22.408Z,13.77
2023-01-22T01:13:53.886Z,13.30
2023-01-22T01:16:23.982Z,13.60
2023-01-22T01:18:50.898Z,14.07
2023-01-22T01:21:19.311Z,14.40
2023-01-22T01:23:46.864Z,15.07
2023-01-22T01:26:15.431Z,13.30
2023-01-22T01:28:43.286Z,14.37
2023-01-22T01:31:13.490Z,13.83
2023-01-22T01:33:41.160Z,14.23
2023-01-22T01:36:14.989Z,13.97
2023-01-22T01:38:41.753Z,14.53
2023-01-22T01:41:11.090Z,13.90
2023-01-22T01:43:38.100Z,14.30
2023-01-22T01:46:11.406Z,16.07
2023-01-22T01:48:47.982Z,14.83
2023-01-22T01:51:18.392Z,15.33
2023-01-22T01:53:46.926Z,14.77
2023-01-22T01:56:18.335Z,14.93
2023-01-22T01:58:47.284Z,15.00
2023-01-22T02:01:18.276Z,14.03
2023-01-22T02:03:46.893Z,14.77
2023-01-22T02:06:16.928Z,14.67
2023-01-22T02:08:50.110Z,14.77
2023-01-22T02:11:21.562Z,15.53
2023-01-22T02:13:59.896Z,15.50
2023-01-22T02:16:26.744Z,15.80
2023-01-22T02:18:53.627Z,14.73
2023-01-22T02:21:38.547Z,15.80
2023-01-22T02:24:11.554Z,15.10
2023-01-22T02:26:39.641Z,16.00
2023-01-22T02:29:08.104Z,15.83
2023-01-22T02:31:36.167Z,14.87
2023-01-22T02:34:03.123Z,16.27
2023-01-22T02:36:31.830Z,15.33
2023-01-22T02:38:59.845Z,15.40
2023-01-22T02:41:27.169Z,16.17
2023-01-22T02:43:54.183Z,15.97
2023-01-22T02:46:21.440Z,15.30
2023-01-22T02:48:50.997Z,17.67
2023-01-22T02:51:17.847Z,16.53
2023-01-22T02:53:44.640Z,16.70
2023-01-22T02:56:12.153Z,15.90
2023-01-22T02:58:38.901Z,16.10
2023-01-22T03:01:21.260Z,17.20
2023-01-22T03:03:56.452Z,17.70
2023-01-22T03:06:25.977Z,16.40
2023-01-22T03:08:55.286Z,17.60
2023-01-22T03:11:22.321Z,16.90
2023-01-22T03:14:07.767Z,16.43
2023-01-22T03:16:53.228Z,17.27
2023-01-22T03:19:39.481Z,16.10
2023-01-22T03:22:06.603Z,16.93
2023-01-22T03:24:33.381Z,16.77
2023-01-22T03:27:00.341Z,16.53
2023-01-22T03:29:27.057Z,17.47
2023-01-22T03:31:53.889Z,17.50
2023-01-22T03:34:22.695Z,17.23
2023-01-22T03:36:49.408Z,17.27
2023-01-22T03:39:16.363Z,16.40
2023-01-22T03:41:43.217Z,16.97
2023-01-22T03:44:11.801Z,16.33
2023-01-22T03:46:40.345Z,17.53
2023-01-22T03:49:08.477Z,16.93
2023-01-22T03:51:35.628Z,18.53
2023-01-22T03:54:02.387Z,19.00
2023-01-22T03:56:29.446Z,17.67
2023-01-22T03:58:56.615Z,18.87
2023-01-22T04:01:26.073Z,16.33
2023-01-22T04:03:53.871Z,17.37
2023-01-22T04:06:21.728Z,17.20
2023-01-22T04:08:50.092Z,18.20
2023-01-22T04:11:17.175Z,18.50
2023-01-22T04:13:44.662Z,16.73
2023-01-22T04:16:13.204Z,17.43
2023-01-22T04:18:41.159Z,16.83
2023-01-22T04:21:08.681Z,16.43
2023-01-22T04:23:35.456Z,17.57
2023-01-22T04:26:02.209Z,17.33
2023-01-22T04:28:28.953Z,16.63
2023-01-22T04:30:58.853Z,17.23
2023-01-22T04:33:25.696Z,16.90
2023-01-22T04:35:54.380Z,17.13
2023-01-22T04:38:21.390Z,17.23
2023-01-22T04:40:48.638Z,17.43
2023-01-22T04:43:15.599Z,17.43
2023-01-22T04:45:42.315Z,17.60
2023-01-22T04:48:09.392Z,17.70
2023-01-22T04:50:36.210Z,17.30
2023-01-22T04:53:04.052Z,17.33
2023-01-22T04:55:31.220Z,16.73
2023-01-22T04:57:59.705Z,16.97
2023-01-22T05:00:27.805Z,18.83
2023-01-22T05:02:59.304Z,16.83
2023-01-22T05:05:27.486Z,17.20
2023-01-22T05:07:54.541Z,17.33
2023-01-22T05:10:21.872Z,16.70
2023-01-22T05:12:49.207Z,15.93
2023-01-22T05:15:24.173Z,17.03
2023-01-22T05:17:52.537Z,18.13
2023-01-22T05:20:20.133Z,17.93
2023-01-22T05:22:46.998Z,17.93
2023-01-22T05:25:13.787Z,18.07
2023-01-22T05:27:40.632Z,17.60
2023-01-22T05:30:08.631Z,17.50
2023-01-22T05:32:35.534Z,18.73
2023-01-22T05:35:03.010Z,18.87
2023-01-22T05:37:31.915Z,18.33
2023-01-22T05:39:58.816Z,19.83
2023-01-22T05:42:25.604Z,18.47
2023-01-22T05:44:52.344Z,18.40
2023-01-22T05:47:19.089Z,19.73
2023-01-22T05:49:45.918Z,20.13
2023-01-22T05:52:15.732Z,19.87
2023-01-22T05:54:42.553Z,18.53
2023-01-22T05:57:09.310Z,19.40
2023-01-22T05:59:36.046Z,19.27
2023-01-22T06:02:03.589Z,19.40
2023-01-22T06:04:30.342Z,18.60
2023-01-22T06:06:59.442Z,19.47
2023-01-22T06:09:26.174Z,19.67
2023-01-22T06:11:53.049Z,18.80
2023-01-22T06:14:19.780Z,18.00
2023-01-22T06:16:46.631Z,18.20
2023-01-22T06:19:13.392Z,19.33
2023-01-22T06:21:40.710Z,19.73
2023-01-22T06:24:07.650Z,19.10
2023-01-22T06:26:34.451Z,18.87
2023-01-22T06:29:01.327Z,19.67
2023-01-22T06:31:28.313Z,17.87
2023-01-22T06:33:57.599Z,18.33
2023-01-22T06:36:24.329Z,18.83
2023-01-22T06:38:51.128Z,19.47
2023-01-22T06:41:17.922Z,19.30
2023-01-22T06:43:44.680Z,18.87
2023-01-22T06:46:11.483Z,27.23
2023-01-22T06:48:38.319Z,19.07
2023-01-22T06:51:05.294Z,18.37
2023-01-22T06:53:32.087Z,18.90
2023-01-22T06:56:00.084Z,24.83
2023-01-22T06:58:27.107Z,19.70
2023-01-22T07:00:53.835Z,18.97
2023-01-22T07:03:20.706Z,18.37
2023-01-22T07:05:55.279Z,31.33
2023-01-22T07:08:21.984Z,18.23
2023-01-22T07:10:48.761Z,18.37
2023-01-22T07:13:16.072Z,16.73
2023-01-22T07:15:43.231Z,17.13
2023-01-22T07:18:10.992Z,17.07
2023-01-22T07:20:37.694Z,18.67
2023-01-22T07:23:04.398Z,19.13
2023-01-22T07:25:31.110Z,17.93
2023-01-22T07:28:02.354Z,18.83
2023-01-22T07:30:29.804Z,17.97
2023-01-22T07:33:03.786Z,17.73
2023-01-22T07:35:31.242Z,17.47
2023-01-22T07:37:59.380Z,17.07
2023-01-22T07:40:26.680Z,18.90
2023-01-22T07:42:53.896Z,17.43
2023-01-22T07:45:22.676Z,17.40
2023-01-22T07:47:56.513Z,18.63
2023-01-22T07:50:24.765Z,18.37
2023-01-22T07:52:51.683Z,19.33
2023-01-22T07:55:18.651Z,22.20
2023-01-22T07:57:45.413Z,18.27
2023-01-22T08:00:15.825Z,19.30
2023-01-22T08:02:43.213Z,16.80
2023-01-22T08:05:12.451Z,17.30
2023-01-22T08:07:39.198Z,19.20
2023-01-22T08:10:06.401Z,19.27
2023-01-22T08:12:33.118Z,16.73
2023-01-22T08:14:59.870Z,16.73
2023-01-22T08:17:26.641Z,22.37
2023-01-22T08:19:53.471Z,19.37
2023-01-22T08:22:20.260Z,17.60
2023-01-22T08:24:46.982Z,20.73
2023-01-22T08:27:13.962Z,18.43
2023-01-22T08:29:40.694Z,19.67
2023-01-22T08:32:07.562Z,18.53
2023-01-22T08:34:34.511Z,18.23
2023-01-22T08:37:01.357Z,17.00
2023-01-22T08:39:28.164Z,16.83
2023-01-22T08:41:57.693Z,17.07
2023-01-22T08:44:25.449Z,18.43
2023-01-22T08:46:52.439Z,16.40
2023-01-22T08:49:21.398Z,17.10
2023-01-22T08:51:50.348Z,17.37
2023-01-22T08:54:18.186Z,17.27
2023-01-22T08:56:44.970Z,16.67
2023-01-22T08:59:11.738Z,16.30
2023-01-22T09:01:38.473Z,15.80
2023-01-22T09:04:09.388Z,15.93
2023-01-22T09:06:36.689Z,18.10
2023-01-22T09:09:03.846Z,17.83
2023-01-22T09:11:31.404Z,16.00
2023-01-22T09:13:58.847Z,17.40
2023-01-22T09:16:28.461Z,23.90
2023-01-22T09:19:01.684Z,18.40
2023-01-22T09:21:28.502Z,17.60
2023-01-22T09:23:55.205Z,20.30
2023-01-22T09:26:22.002Z,21.77
2023-01-22T09:28:48.760Z,21.17
2023-01-22T09:31:16.071Z,22.10
2023-01-22T09:33:43.082Z,18.80
2023-01-22T09:36:16.806Z,17.47
2023-01-22T09:38:44.419Z,17.97
2023-01-22T09:41:24.438Z,21.00
2023-01-22T09:44:11.397Z,16.97
2023-01-22T09:46:44.234Z,16.73
2023-01-22T09:49:24.075Z,15.07
2023-01-22T09:51:59.745Z,16.07
2023-01-22T09:54:28.898Z,16.73
2023-01-22T09:57:01.757Z,15.23
2023-01-22T09:59:46.721Z,16.63
2023-01-22T10:03:02.068Z,15.27
2023-01-22T10:05:41.219Z,14.90
2023-01-22T10:08:11.659Z,15.37
2023-01-22T10:10:38.740Z,15.60
2023-01-22T10:13:35.365Z,15.70
2023-01-22T10:16:03.199Z,14.83
2023-01-22T10:18:47.750Z,14.73
2023-01-22T10:21:22.140Z,15.33
2023-01-22T10:23:50.298Z,15.00
2023-01-22T10:26:21.991Z,15.27
2023-01-22T10:28:54.364Z,16.10
2023-01-22T10:31:31.006Z,15.43
2023-01-22T10:34:00.749Z,16.07
2023-01-22T10:36:29.934Z,15.10
2023-01-22T10:39:22.892Z,17.83
2023-01-22T10:41:50.319Z,15.50
2023-01-22T10:44:23.949Z,16.80
2023-01-22T10:46:51.906Z,45.63
2023-01-22T10:49:27.143Z,15.77
2023-01-22T10:51:59.335Z,16.60
2023-01-22T10:54:32.957Z,14.53
2023-01-22T10:57:13.817Z,16.00
2023-01-22T10:59:40.861Z,16.23
2023-01-22T11:02:20.465Z,16.03
2023-01-22T11:04:47.438Z,15.40
2023-01-22T11:07:32.434Z,19.10
2023-01-22T11:10:35.062Z,14.93
2023-01-22T11:13:13.520Z,16.20
2023-01-22T11:15:56.295Z,15.63
2023-01-22T11:18:36.256Z,17.97
2023-01-22T11:21:25.035Z,20.20
2023-01-22T11:23:52.301Z,18.47
2023-01-22T11:26:31.034Z,17.87
2023-01-22T11:29:16.087Z,16.90
2023-01-22T11:32:00.846Z,18.50
2023-01-22T11:35:08.105Z,24.30
2023-01-22T11:37:52.864Z,17.63
2023-01-22T11:40:30.140Z,24.70
2023-01-22T11:43:09.099Z,20.90
2023-01-22T11:45:58.529Z,17.57
2023-01-22T11:48:34.494Z,18.03
2023-01-22T11:51:13.199Z,16.57
2023-01-22T11:53:59.023Z,19.23
2023-01-22T11:57:03.505Z,16.27
2023-01-22T11:59:39.357Z,15.53
2023-01-22T12:02:32.850Z,17.17
2023-01-22T12:05:28.825Z,17.07
2023-01-22T12:08:18.050Z,16.87
2023-01-22T12:11:03.221Z,16.07
2023-01-22T12:14:15.752Z,16.83
2023-01-22T12:17:00.523Z,16.53
2023-01-22T12:19:42.499Z,16.97
2023-01-22T12:22:46.571Z,17.07
2023-01-22T12:25:48.897Z,17.67
2023-01-22T12:28:24.511Z,17.07
2023-01-22T12:30:59.064Z,16.33
2023-01-22T12:33:30.698Z,32.73
2023-01-22T12:36:01.449Z,27.10
2023-01-22T12:38:38.524Z,47.37
2023-01-22T12:41:46.370Z,15.10
2023-01-22T12:44:57.101Z,19.43
2023-01-22T12:47:40.937Z,14.73
2023-01-22T12:50:23.051Z,15.40
2023-01-22T12:53:21.166Z,15.17
2023-01-22T12:56:03.451Z,15.93
2023-01-22T12:58:39.527Z,14.60
2023-01-22T13:01:06.412Z,14.70
2023-01-22T13:03:34.288Z,14.80
2023-01-22T13:06:03.805Z,14.10
2023-01-22T13:08:45.234Z,16.20
2023-01-22T13:11:27.189Z,18.27
2023-01-22T13:14:20.223Z,15.97
2023-01-22T13:17:03.483Z,14.27
2023-01-22T13:19:40.021Z,13.87
2023-01-22T13:22:11.085Z,14.53
2023-01-22T13:24:59.179Z,15.47
2023-01-22T13:27:36.333Z,14.77
2023-01-22T13:30:27.507Z,14.57
2023-01-22T13:33:12.899Z,15.37
2023-01-22T13:35:46.708Z,14.57
2023-01-22T13:38:30.864Z,15.33
2023-01-22T13:41:13.073Z,13.90
2023-01-22T13:43:41.724Z,13.30
2023-01-22T13:46:13.944Z,14.43
2023-01-22T13:48:41.569Z,15.17
2023-01-22T13:51:19.958Z,13.63
2023-01-22T13:53:52.629Z,13.43
2023-01-22T13:56:22.373Z,13.47
2023-01-22T13:58:49.740Z,14.17
2023-01-22T14:01:31.679Z,13.53
2023-01-22T14:04:04.156Z,13.87
2023-01-22T14:06:41.867Z,12.87
2023-01-22T14:09:09.506Z,13.37
2023-01-22T14:11:42.534Z,13.40
2023-01-22T14:14:18.487Z,14.13
2023-01-22T14:16:45.597Z,13.93
2023-01-22T14:19:12.533Z,13.83
2023-01-22T14:21:39.583Z,13.47
2023-01-22T14:24:09.442Z,13.77
2023-01-22T14:26:36.439Z,13.50
2023-01-22T14:29:03.349Z,13.37
2023-01-22T14:31:30.223Z,14.40
2023-01-22T14:33:57.040Z,14.23
2023-01-22T14:36:23.808Z,14.60
2023-01-22T14:38:53.499Z,13.33
2023-01-22T14:41:20.307Z,14.20
2023-01-22T14:43:47.116Z,14.13
2023-01-22T14:46:13.963Z,15.10
2023-01-22T14:48:40.682Z,14.33
2023-01-22T14:51:11.594Z,14.37
2023-01-22T14:53:38.972Z,15.47
2023-01-22T14:56:06.305Z,14.20
2023-01-22T14:58:33.245Z,14.93
2023-01-22T15:01:02.434Z,14.97
2023-01-22T15:03:29.894Z,14.90
2023-01-22T15:05:56.849Z,15.20
2023-01-22T15:08:23.713Z,15.63
2023-01-22T15:10:50.465Z,16.27
2023-01-22T15:13:17.464Z,14.97
2023-01-22T15:15:44.183Z,14.90
2023-01-22T15:18:10.896Z,16.07
2023-01-22T15:20:38.079Z,14.50
2023-01-22T15:23:04.840Z,15.00
2023-01-22T15:25:34.985Z,15.27
2023-01-22T15:28:03.016Z,15.13
2023-01-22T15:30:30.446Z,15.53
2023-01-22T15:32:57.281Z,13.73
2023-01-22T15:35:24.014Z,15.70
2023-01-22T15:37:50.750Z,14.33
2023-01-22T15:40:17.949Z,14.50
2023-01-22T15:42:44.820Z,14.67
2023-01-22T15:45:11.861Z,13.53
2023-01-22T15:47:38.604Z,16.53
2023-01-22T15:50:06.203Z,18.90
2023-01-22T15:52:33.081Z,18.17
2023-01-22T15:55:00.313Z,19.23
2023-01-22T15:57:27.547Z,19.77
2023-01-22T15:59:54.247Z,19.73
2023-01-22T16:02:21.137Z,17.63
2023-01-22T16:04:50.126Z,18.13
2023-01-22T16:07:17.317Z,19.67
2023-01-22T16:09:44.212Z,19.60
2023-01-22T16:12:10.945Z,21.07
2023-01-22T16:14:37.759Z,19.27
2023-01-22T16:17:06.727Z,19.43
2023-01-22T16:19:33.492Z,19.10
2023-01-22T16:22:00.272Z,21.10
2023-01-22T16:24:27.525Z,23.43
2023-01-22T16:26:54.307Z,24.40
2023-01-22T16:29:21.064Z,24.17
2023-01-22T16:31:47.852Z,24.93
2023-01-22T16:34:18.432Z,24.97
2023-01-22T16:36:45.757Z,24.67
2023-01-22T16:39:20.994Z,22.57
2023-01-22T16:41:51.885Z,23.00
2023-01-22T16:44:20.611Z,22.80
2023-01-22T16:46:51.186Z,22.90
2023-01-22T16:49:26.381Z,23.87
2023-01-22T16:52:05.099Z,23.57
2023-01-22T16:54:38.847Z,24.17
2023-01-22T16:57:07.391Z,22.83
2023-01-22T16:59:36.032Z,36.57
2023-01-22T17:02:07.748Z,48.50
2023-01-22T17:04:34.508Z,56.07
2023-01-22T17:07:01.424Z,24.63
2023-01-22T17:09:33.516Z,25.20
2023-01-22T17:12:02.755Z,39.37
2023-01-22T17:14:30.900Z,23.93
2023-01-22T17:16:58.964Z,31.53
2023-01-22T17:19:25.812Z,34.10
2023-01-22T17:22:01.605Z,24.97
2023-01-22T17:24:30.172Z,25.33
2023-01-22T17:26:58.206Z,25.73
2023-01-22T17:29:25.012Z,23.83
2023-01-22T17:31:52.402Z,25.27
2023-01-22T17:34:19.488Z,25.52
2023-01-22T17:36:46.383Z,23.93
2023-01-22T17:39:17.151Z,23.23
2023-01-22T17:41:44.823Z,23.67
2023-01-22T17:44:12.512Z,23.93
2023-01-22T17:46:39.991Z,23.03
2023-01-22T17:49:06.918Z,22.70
2023-01-22T17:51:35.160Z,23.60
2023-01-22T17:54:03.453Z,24.40
2023-01-22T17:56:32.790Z,24.30
2023-01-22T17:59:02.435Z,24.23
2023-01-22T18:01:30.726Z,23.53
2023-01-22T18:04:02.874Z,22.80
2023-01-22T18:06:29.853Z,23.60
2023-01-22T18:08:57.211Z,24.33
2023-01-22T18:11:29.655Z,23.37
2023-01-22T18:13:58.243Z,23.77
2023-01-22T18:16:27.758Z,23.73
2023-01-22T18:18:55.433Z,25.20
2023-01-22T18:21:23.188Z,24.77
2023-01-22T18:23:50.800Z,23.77
2023-01-22T18:26:23.224Z,23.73
2023-01-22T18:28:50.857Z,22.43
2023-01-22T18:31:21.430Z,22.77
2023-01-22T18:33:49.472Z,24.70
2023-01-22T18:36:19.577Z,22.90
2023-01-22T18:38:46.724Z,23.17
2023-01-22T18:41:20.059Z,22.30
2023-01-22T18:43:48.677Z,25.07
2023-01-22T18:46:16.330Z,24.57
2023-01-22T18:48:43.959Z,23.47
2023-01-22T18:51:15.595Z,22.80
2023-01-22T18:53:42.620Z,27.60
2023-01-22T18:56:11.630Z,24.37
2023-01-22T18:58:40.592Z,25.60
2023-01-22T19:01:09.915Z,24.93
2023-01-22T19:03:36.670Z,23.80
2023-01-22T19:06:05.191Z,51.77
2023-01-22T19:08:31.961Z,23.30
2023-01-22T19:11:06.259Z,24.97
2023-01-22T19:13:35.533Z,23.73
2023-01-22T19:16:05.742Z,23.20
2023-01-22T19:18:32.597Z,24.13
2023-01-22T19:21:07.400Z,24.37
2023-01-22T19:23:36.252Z,23.37
2023-01-22T19:26:13.049Z,24.40
2023-01-22T19:28:40.416Z,23.27
2023-01-22T19:31:34.731Z,25.33
2023-01-22T19:34:02.448Z,25.67
2023-01-22T19:36:31.566Z,23.73
2023-01-22T19:39:00.398Z,23.63
2023-01-22T19:41:28.095Z,23.27
2023-01-22T19:43:57.614Z,23.93
2023-01-22T19:46:26.056Z,21.07
2023-01-22T19:48:53.640Z,23.20
2023-01-22T19:51:22.195Z,24.00
2023-01-22T19:53:51.679Z,21.80
2023-01-22T19:56:24.918Z,22.83
2023-01-22T19:58:54.075Z,23.70
2023-01-22T20:01:21.574Z,24.53
2023-01-22T20:03:48.534Z,24.97
2023-01-22T20:06:17.851Z,24.47
2023-01-22T20:08:45.948Z,26.20
2023-01-22T20:11:13.699Z,26.37
2023-01-22T20:13:41.729Z,26.00
2023-01-22T20:16:21.978Z,24.93
2023-01-22T20:18:49.905Z,29.77
2023-01-22T20:21:18.053Z,25.27
2023-01-22T20:23:47.113Z,24.23
2023-01-22T20:26:15.105Z,23.17
2023-01-22T20:28:42.395Z,24.47
2023-01-22T20:31:14.838Z,25.53
2023-01-22T20:33:41.791Z,28.63
2023-01-22T20:36:11.666Z,26.83
2023-01-22T20:38:38.517Z,25.67
2023-01-22T20:41:09.294Z,25.47
2023-01-22T20:43:39.194Z,25.83
2023-01-22T20:46:18.587Z,28.20
2023-01-22T20:48:46.276Z,30.87
2023-01-22T20:51:22.121Z,28.57
2023-01-22T20:53:50.595Z,34.03
2023-01-22T20:56:21.043Z,28.70
2023-01-22T20:58:47.997Z,26.27
2023-01-22T21:01:19.053Z,23.73
2023-01-22T21:03:47.900Z,24.50
2023-01-22T21:06:17.356Z,22.67
2023-01-22T21:08:48.853Z,22.90
2023-01-22T21:11:20.385Z,23.47
2023-01-22T21:13:48.878Z,23.17
2023-01-22T21:16:29.075Z,22.53
2023-01-22T21:19:01.338Z,22.03
2023-01-22T21:21:29.505Z,22.60
2023-01-22T21:23:56.903Z,23.57
2023-01-22T21:26:27.399Z,21.23
2023-01-22T21:29:00.286Z,21.77
2023-01-22T21:31:27.884Z,23.23
2023-01-22T21:34:02.660Z,22.87
2023-01-22T21:36:49.634Z,21.20
2023-01-22T21:39:18.742Z,22.63
2023-01-22T21:41:46.104Z,22.10
2023-01-22T21:44:33.671Z,22.97
2023-01-22T21:47:00.881Z,22.77
2023-01-22T21:49:28.281Z,22.70
2023-01-22T21:51:58.971Z,22.33
2023-01-22T21:54:27.539Z,22.37
2023-01-22T21:56:55.078Z,23.13
2023-01-22T21:59:22.320Z,23.30
2023-01-22T22:01:50.386Z,22.83
2023-01-22T22:04:17.951Z,23.80
2023-01-22T22:06:45.097Z,24.77
2023-01-22T22:09:15.425Z,24.33
2023-01-22T22:11:43.470Z,24.97
2023-01-22T22:14:16.025Z,25.40
2023-01-22T22:16:44.487Z,26.90
2023-01-22T22:19:12.372Z,25.60
2023-01-22T22:21:39.977Z,24.73
2023-01-22T22:24:07.815Z,25.03
2023-01-22T22:26:34.767Z,26.13
2023-01-22T22:29:01.992Z,26.60
2023-01-22T22:31:28.905Z,27.00
2023-01-22T22:33:57.052Z,24.73
2023-01-22T22:36:26.413Z,25.07
2023-01-22T22:38:53.295Z,25.23
2023-01-22T22:41:23.082Z,25.87
2023-01-22T22:43:53.214Z,25.33
2023-01-22T22:46:32.235Z,22.20
2023-01-22T22:49:00.926Z,22.97
2023-01-22T22:51:35.987Z,24.03
2023-01-22T22:54:07.681Z,24.60
2023-01-22T22:56:34.533Z,24.13
2023-01-22T22:59:03.046Z,23.23
2023-01-22T23:01:33.069Z,22.87
2023-01-22T23:04:00.934Z,24.67
2023-01-22T23:06:30.255Z,22.57
2023-01-22T23:08:58.795Z,24.83
2023-01-22T23:11:36.556Z,25.30
2023-01-22T23:14:04.780Z,25.37
2023-01-22T23:16:42.205Z,26.23
2023-01-22T23:19:17.374Z,25.20
2023-01-22T23:21:45.399Z,25.27
2023-01-22T23:24:13.923Z,26.27
2023-01-22T23:26:42.393Z,26.03
2023-01-22T23:29:12.135Z,28.27
2023-01-22T23:31:40.179Z,27.40
2023-01-22T23:34:16.020Z,29.60
2023-01-22T23:36:45.173Z,29.23
2023-01-22T23:39:13.986Z,27.13
2023-01-22T23:41:41.722Z,27.47
2023-01-22T23:44:08.656Z,27.53
2023-01-22T23:46:36.490Z,27.83
2023-01-22T23:49:04.512Z,29.70
2023-01-22T23:51:31.681Z,28.63
2023-01-22T23:53:58.691Z,27.40
2023-01-22T23:56:32.105Z,27.50
2023-01-22T23:58:59.896Z,28.73
